createdAt,value
2022-09-28T00:00:33.372Z,5.63
2022-09-28T00:05:35.560Z,4.10
2022-09-28T00:10:37.604Z,5.20
2022-09-28T00:15:39.356Z,4.15
2022-09-28T00:20:41.082Z,4.72
2022-09-28T00:25:42.774Z,4.25
2022-09-28T00:30:44.481Z,6.10
2022-09-28T00:35:46.224Z,4.25
2022-09-28T00:40:47.962Z,5.93
2022-09-28T00:45:59.030Z,6.20
2022-09-28T00:51:06.225Z,5.47
2022-09-28T00:56:13.954Z,5.10
2022-09-28T01:01:16.340Z,4.35
2022-09-28T01:06:21.557Z,4.47
2022-09-28T01:11:24.363Z,5.75
2022-09-28T01:16:52.701Z,4.30
2022-09-28T01:22:18.720Z,4.82
2022-09-28T01:27:30.836Z,6.35
2022-09-28T01:32:49.429Z,5.60
2022-09-28T01:38:05.306Z,4.82
2022-09-28T01:43:14.800Z,7.20
2022-09-28T01:48:26.322Z,6.05
2022-09-28T01:53:41.166Z,5.40
2022-09-28T02:03:56.593Z,5.47
2022-09-28T02:09:04.410Z,4.78
2022-09-28T02:14:17.370Z,4.63
2022-09-28T02:19:24.382Z,5.55
2022-09-28T02:24:43.779Z,5.82
2022-09-28T02:29:51.956Z,5.63
2022-09-28T02:34:55.438Z,5.97
2022-09-28T02:39:57.261Z,6.10
2022-09-28T02:45:07.869Z,13.73
2022-09-28T02:50:16.065Z,6.60
2022-09-28T02:55:30.092Z,7.38
2022-09-28T03:00:43.733Z,7.55
2022-09-28T03:06:18.681Z,8.05
2022-09-28T03:11:32.024Z,6.93
2022-09-28T03:16:34.098Z,6.53
2022-09-28T03:21:36.758Z,7.90
2022-09-28T03:26:39.145Z,7.28
2022-09-28T03:31:41.485Z,10.18
2022-09-28T03:36:43.388Z,8.45
2022-09-28T03:41:45.114Z,8.88
2022-09-28T03:46:47.028Z,8.13
2022-09-28T03:51:48.818Z,11.68
2022-09-28T03:56:51.886Z,9.93
2022-09-28T04:01:53.691Z,8.77
2022-09-28T04:06:55.471Z,9.18
2022-09-28T04:12:03.762Z,8.90
2022-09-28T04:17:07.125Z,9.10
2022-09-28T04:22:09.521Z,10.68
2022-09-28T04:27:29.773Z,10.20
2022-09-28T04:32:31.527Z,9.55
2022-09-28T04:37:33.785Z,9.85
2022-09-28T04:42:37.013Z,12.68
2022-09-28T04:47:38.819Z,9.68
2022-09-28T04:53:02.516Z,9.68
2022-09-28T04:58:04.696Z,10.27
2022-09-28T05:03:07.279Z,9.35
2022-09-28T05:08:35.800Z,9.60
2022-09-28T05:13:43.185Z,9.50
2022-09-28T05:18:44.969Z,10.60
2022-09-28T05:23:47.983Z,11.88
2022-09-28T05:28:50.794Z,9.57
2022-09-28T05:34:11.069Z,10.85
2022-09-28T05:39:13.218Z,9.65
2022-09-28T05:44:15.158Z,9.80
2022-09-28T05:49:17.675Z,9.48
2022-09-28T05:54:19.612Z,9.68
2022-09-28T05:59:22.125Z,9.45
2022-09-28T06:04:24.483Z,10.60
2022-09-28T06:09:26.452Z,9.27
2022-09-28T06:14:49.911Z,8.20
2022-09-28T06:19:52.269Z,11.45
2022-09-28T06:25:02.526Z,10.80
2022-09-28T06:30:04.673Z,8.93
2022-09-28T06:35:08.033Z,10.20
2022-09-28T06:40:10.727Z,12.27
2022-09-28T06:45:13.494Z,11.35
2022-09-28T06:50:40.151Z,10.57
2022-09-28T06:56:02.583Z,13.55
2022-09-28T07:01:05.734Z,11.15
2022-09-28T07:06:32.323Z,11.38
2022-09-28T07:11:53.504Z,13.88
2022-09-28T07:17:18.200Z,14.65
2022-09-28T07:22:29.586Z,14.77
2022-09-28T07:27:39.867Z,12.73
2022-09-28T07:32:51.689Z,12.10
2022-09-28T07:38:33.097Z,12.50
2022-09-28T07:43:36.118Z,12.73
2022-09-28T07:48:42.759Z,12.35
2022-09-28T07:53:59.654Z,12.73
2022-09-28T07:59:17.502Z,10.93
2022-09-28T08:04:37.869Z,11.48
2022-09-28T08:09:39.768Z,14.18
2022-09-28T08:15:00.177Z,10.73
2022-09-28T08:20:29.666Z,10.73
2022-09-28T08:25:31.641Z,10.85
2022-09-28T08:30:36.718Z,10.15
2022-09-28T08:36:01.744Z,11.25
2022-09-28T08:41:39.093Z,9.88
2022-09-28T08:47:06.482Z,11.05
2022-09-28T08:52:47.583Z,11.60
2022-09-28T08:58:18.152Z,10.25
2022-09-28T09:03:26.742Z,11.20
2022-09-28T09:08:52.466Z,8.70
2022-09-28T09:14:27.531Z,8.55
2022-09-28T09:19:42.725Z,8.60
2022-09-28T09:25:25.574Z,9.23
2022-09-28T09:30:40.534Z,7.15
2022-09-28T09:35:45.785Z,7.40
2022-09-28T09:41:27.221Z,6.90
2022-09-28T09:47:11.028Z,6.93
2022-09-28T09:52:57.386Z,4.72
2022-09-28T09:58:28.805Z,5.75
2022-09-28T10:03:48.688Z,4.82
2022-09-28T10:09:16.820Z,3.95
2022-09-28T10:14:22.130Z,4.50
2022-09-28T10:19:37.114Z,4.15
2022-09-28T10:25:09.865Z,4.10
2022-09-28T10:30:19.085Z,5.13
2022-09-28T10:35:27.123Z,2.55
2022-09-28T10:40:47.161Z,5.85
2022-09-28T10:46:00.875Z,3.83
2022-09-28T10:51:07.470Z,3.80
2022-09-28T10:56:22.377Z,3.90
2022-09-28T11:01:33.751Z,3.53
2022-09-28T11:06:38.933Z,4.00
2022-09-28T11:11:43.927Z,4.55
2022-09-28T11:16:46.259Z,4.43
2022-09-28T11:21:48.813Z,3.38
2022-09-28T11:27:00.118Z,4.68
2022-09-28T11:32:05.631Z,3.95
2022-09-28T11:37:27.854Z,4.50
2022-09-28T11:42:58.718Z,4.13
2022-09-28T11:48:13.356Z,4.35
2022-09-28T11:53:34.953Z,3.70
2022-09-28T11:58:50.725Z,4.10
2022-09-28T12:04:03.676Z,3.67
2022-09-28T12:14:35.646Z,3.40
2022-09-28T12:19:48.665Z,4.10
2022-09-28T12:24:54.406Z,3.05
2022-09-28T12:30:19.279Z,1.98
2022-09-28T12:35:43.527Z,3.08
2022-09-28T12:40:59.279Z,2.85
2022-09-28T12:46:42.295Z,2.25
2022-09-28T12:51:54.928Z,2.20
2022-09-28T12:57:00.663Z,3.92
2022-09-28T13:02:24.308Z,1.80
2022-09-28T13:07:28.784Z,2.47
2022-09-28T13:12:37.277Z,2.20
2022-09-28T13:17:55.314Z,1.75
2022-09-28T13:23:57.886Z,2.63
2022-09-28T13:29:15.611Z,2.45
2022-09-28T13:34:22.586Z,2.95
2022-09-28T13:39:56.281Z,1.92
2022-09-28T13:45:19.434Z,2.25
2022-09-28T13:51:05.643Z,2.92
2022-09-28T13:56:42.706Z,2.15
2022-09-28T14:01:55.878Z,2.88
2022-09-28T14:07:11.443Z,2.53
2022-09-28T14:12:35.167Z,2.30
2022-09-28T14:17:53.866Z,1.67
2022-09-28T14:23:02.552Z,3.63
2022-09-28T14:28:26.255Z,1.87
2022-09-28T14:33:31.402Z,2.35
2022-09-28T14:39:04.063Z,2.47
2022-09-28T14:44:10.618Z,2.88
2022-09-28T14:49:19.579Z,2.50
2022-09-28T14:54:23.498Z,3.45
2022-09-28T14:59:26.681Z,3.30
2022-09-28T15:04:30.632Z,3.15
2022-09-28T15:09:34.634Z,3.60
2022-09-28T15:14:46.119Z,3.47
2022-09-28T15:20:07.149Z,2.45
2022-09-28T15:25:14.841Z,2.72
2022-09-28T15:30:19.653Z,3.25
2022-09-28T15:35:24.331Z,4.05
2022-09-28T15:40:35.148Z,4.18
2022-09-28T15:45:40.540Z,3.10
2022-09-28T15:50:53.566Z,3.28
2022-09-28T15:56:03.520Z,4.15
2022-09-28T16:01:35.960Z,3.53
2022-09-28T16:06:38.515Z,4.47
2022-09-28T16:11:41.168Z,4.03
2022-09-28T16:16:48.730Z,5.70
2022-09-28T16:21:53.459Z,5.72
2022-09-28T16:26:59.645Z,2.90
2022-09-28T16:32:26.248Z,4.60
2022-09-28T16:37:32.067Z,4.25
2022-09-28T16:42:33.991Z,4.22
2022-09-28T16:47:35.978Z,4.60
2022-09-28T16:52:59.840Z,4.05
2022-09-28T16:58:04.529Z,5.30
2022-09-28T17:03:18.376Z,5.53
2022-09-28T17:08:22.596Z,4.82
2022-09-28T17:13:36.033Z,6.07
2022-09-28T17:18:39.142Z,5.72
2022-09-28T17:23:41.164Z,6.60
2022-09-28T17:28:42.865Z,6.65
2022-09-28T17:33:45.230Z,5.80
2022-09-28T17:38:48.255Z,7.35
2022-09-28T17:43:49.984Z,7.93
2022-09-28T17:48:51.864Z,7.20
2022-09-28T17:53:56.058Z,7.93
2022-09-28T17:59:04.780Z,6.45
2022-09-28T18:04:08.959Z,7.53
2022-09-28T18:09:14.846Z,6.85
2022-09-28T18:14:16.619Z,8.85
2022-09-28T18:19:18.402Z,8.75
2022-09-28T18:24:20.253Z,6.97
2022-09-28T18:29:22.057Z,6.68
2022-09-28T18:34:23.906Z,6.53
2022-09-28T18:39:26.513Z,6.85
2022-09-28T18:44:28.435Z,8.35
2022-09-28T18:49:30.790Z,6.22
2022-09-28T18:54:33.143Z,6.63
2022-09-28T18:59:34.884Z,8.98
2022-09-28T19:04:36.826Z,8.68
2022-09-28T19:09:43.868Z,6.93
2022-09-28T19:14:45.787Z,9.30
2022-09-28T19:19:47.495Z,8.05
2022-09-28T19:24:49.291Z,8.48
2022-09-28T19:29:51.464Z,8.48
2022-09-28T19:34:53.231Z,10.40
2022-09-28T19:39:54.985Z,9.80
2022-09-28T19:44:57.229Z,8.23
2022-09-28T19:49:58.986Z,9.60
2022-09-28T19:55:01.032Z,9.82
2022-09-28T20:00:03.852Z,10.98
2022-09-28T20:05:08.560Z,8.93
2022-09-28T20:10:11.949Z,9.65
2022-09-28T20:15:13.790Z,8.75
2022-09-28T20:20:16.584Z,10.43
2022-09-28T20:25:18.497Z,9.82
2022-09-28T20:30:20.616Z,8.90
2022-09-28T20:35:32.353Z,8.65
2022-09-28T20:40:36.549Z,9.13
2022-09-28T20:45:38.356Z,10.25
2022-09-28T20:50:41.218Z,11.07
2022-09-28T20:55:42.946Z,11.82
2022-09-28T21:00:44.702Z,12.55
2022-09-28T21:05:46.430Z,12.00
2022-09-28T21:10:50.283Z,11.25
2022-09-28T21:15:52.847Z,12.13
2022-09-28T21:20:54.764Z,11.90
2022-09-28T21:26:03.443Z,13.13
2022-09-28T21:31:07.232Z,10.70
2022-09-28T21:36:10.334Z,10.98
2022-09-28T21:41:12.067Z,8.93
2022-09-28T21:46:13.959Z,8.23
2022-09-28T21:51:16.191Z,9.77
2022-09-28T21:56:17.934Z,8.70
2022-09-28T22:01:21.837Z,7.82
2022-09-28T22:06:29.531Z,9.38
2022-09-28T22:11:31.373Z,8.73
2022-09-28T22:16:33.235Z,7.05
2022-09-28T22:21:35.386Z,6.85
2022-09-28T22:26:37.879Z,8.00
2022-09-28T22:31:41.190Z,8.02
2022-09-28T22:36:43.072Z,7.28
2022-09-28T22:41:44.825Z,7.10
2022-09-28T22:46:46.887Z,7.35
2022-09-28T22:51:49.059Z,8.13
2022-09-28T22:56:50.802Z,7.07
2022-09-28T23:01:52.543Z,7.25
2022-09-28T23:06:54.539Z,9.38
2022-09-28T23:11:56.303Z,7.10
2022-09-28T23:16:58.002Z,10.07
2022-09-28T23:21:59.701Z,8.00
2022-09-28T23:27:01.401Z,7.03
2022-09-28T23:32:03.134Z,8.40
2022-09-28T23:37:04.997Z,8.63
2022-09-28T23:42:06.699Z,8.70
2022-09-28T23:47:08.708Z,8.70
2022-09-28T23:52:10.562Z,9.48
2022-09-28T23:57:12.295Z,8.23
